Time;durP1;ratioP1;P1;durP2;ratioP2;P2;SDS_P1;SDS_P2;PMS_P1;PMS_P2;Temp;Humidity;BMP_temperature;BMP_pressure;BME280_temperature;BME280_humidity;BME280_pressure;Samples;Min_cycle;Max_cycle;Signal;HPM_P1;HPM_P2
2023/12/02 00:00:14;;;;;;;35.90;23.60;;;-0.10;99.90;;;;;;5074768;28;20469;-79
2023/12/02 00:02:39;;;;;;;38.17;23.98;;;-0.10;99.90;;;;;;5076586;28;20047;-79
2023/12/02 00:05:05;;;;;;;40.47;24.97;;;-0.10;99.90;;;;;;5073784;28;20052;-79
2023/12/02 00:07:31;;;;;;;36.22;23.67;;;0.00;99.90;;;;;;5073854;28;20052;-79
2023/12/02 00:09:57;;;;;;;37.93;24.20;;;0.00;99.90;;;;;;5073567;28;20393;-79
2023/12/02 00:12:22;;;;;;;38.00;24.23;;;0.10;99.90;;;;;;5074960;28;20047;-79
2023/12/02 00:14:48;;;;;;;45.37;25.03;;;0.10;99.90;;;;;;5073490;28;20122;-79
2023/12/02 00:17:14;;;;;;;39.23;24.70;;;0.10;99.90;;;;;;5073014;28;20044;-80
2023/12/02 00:19:40;;;;;;;38.17;24.30;;;0.00;99.90;;;;;;5072634;28;20072;-80
2023/12/02 00:22:06;;;;;;;31.77;21.97;;;0.10;99.90;;;;;;5072212;28;20484;-80
2023/12/02 00:24:32;;;;;;;42.33;25.17;;;0.00;99.90;;;;;;5072751;28;20048;-80
2023/12/02 00:26:58;;;;;;;38.28;24.52;;;-0.10;99.90;;;;;;5072500;28;20102;-79
2023/12/02 00:29:23;;;;;;;46.47;26.80;;;0.00;99.90;;;;;;5072678;28;20041;-80
2023/12/02 00:31:49;;;;;;;37.23;24.47;;;0.00;99.90;;;;;;5072424;28;20048;-80
2023/12/02 00:34:15;;;;;;;43.10;26.37;;;0.10;99.90;;;;;;5074256;28;20056;-79
2023/12/02 00:36:45;;;;;;;38.33;23.87;;;0.10;99.90;;;;;;5073921;28;20048;-79
2023/12/02 00:39:11;;;;;;;36.08;23.58;;;0.20;99.90;;;;;;5072814;28;20496;-79
2023/12/02 00:41:36;;;;;;;35.17;23.07;;;0.00;99.90;;;;;;5074105;28;20071;-79
2023/12/02 00:44:02;;;;;;;45.13;25.53;;;0.20;99.90;;;;;;5072865;28;20053;-79
2023/12/02 00:46:28;;;;;;;36.47;23.07;;;0.10;99.90;;;;;;5056402;28;20084;-79
2023/12/02 00:48:53;;;;;;;35.10;23.00;;;0.20;99.90;;;;;;5073817;28;20041;-80
2023/12/02 00:51:19;;;;;;;35.60;24.70;;;0.20;99.90;;;;;;5073045;28;20194;-80
2023/12/02 00:53:45;;;;;;;40.13;24.13;;;0.10;99.90;;;;;;5073490;28;20047;-79
2023/12/02 00:56:11;;;;;;;38.60;24.80;;;0.10;99.90;;;;;;5072672;28;20055;-79
2023/12/02 00:58:36;;;;;;;37.20;23.93;;;0.20;99.90;;;;;;5072348;28;20063;-79
2023/12/02 01:01:02;;;;;;;36.07;23.57;;;0.20;99.90;;;;;;5073636;28;20053;-79
2023/12/02 01:03:28;;;;;;;39.50;24.47;;;0.20;99.90;;;;;;5072711;28;20477;-79
2023/12/02 01:05:53;;;;;;;39.63;25.33;;;0.20;99.90;;;;;;5072180;28;20393;-81
2023/12/02 01:08:19;;;;;;;36.27;23.57;;;0.20;99.90;;;;;;5073690;28;20083;-80
2023/12/02 01:10:45;;;;;;;37.03;23.73;;;0.30;99.90;;;;;;5072163;28;20088;-78
2023/12/02 01:13:11;;;;;;;40.03;25.37;;;0.30;99.90;;;;;;5073627;28;20094;-78
2023/12/02 01:15:37;;;;;;;41.10;25.13;;;0.30;99.90;;;;;;5073638;28;20469;-78
2023/12/02 01:18:02;;;;;;;35.43;23.67;;;0.30;99.90;;;;;;5072993;28;20283;-79
2023/12/02 01:20:28;;;;;;;33.07;22.27;;;0.30;99.90;;;;;;5072248;28;20071;-78
2023/12/02 01:22:54;;;;;;;38.77;24.47;;;0.40;99.90;;;;;;5072142;28;20044;-85
2023/12/02 01:25:19;;;;;;;38.60;23.77;;;0.40;99.90;;;;;;5073370;28;20052;-79
2023/12/02 01:27:45;;;;;;;39.77;24.30;;;0.50;99.90;;;;;;5072459;28;20040;-79
2023/12/02 01:30:11;;;;;;;36.83;23.60;;;0.40;99.90;;;;;;5072242;28;20385;-79
2023/12/02 01:32:37;;;;;;;38.70;24.50;;;0.40;99.90;;;;;;5072879;28;20049;-79
2023/12/02 01:35:03;;;;;;;35.10;23.17;;;0.50;99.90;;;;;;5073063;28;20271;-79
2023/12/02 01:37:28;;;;;;;39.20;24.90;;;0.40;99.90;;;;;;5055639;28;20456;-79
2023/12/02 01:39:54;;;;;;;42.27;25.70;;;0.40;99.90;;;;;;5072067;28;20084;-79
2023/12/02 01:42:20;;;;;;;40.97;26.07;;;0.40;99.90;;;;;;5071837;28;20044;-79
2023/12/02 01:44:45;;;;;;;42.27;25.97;;;0.30;99.90;;;;;;5072412;28;20136;-79
2023/12/02 01:47:11;;;;;;;48.17;27.70;;;0.40;99.90;;;;;;5072949;28;20054;-80
2023/12/02 01:49:39;;;;;;;40.80;25.50;;;0.40;99.90;;;;;;5072036;28;20052;-79
2023/12/02 01:52:05;;;;;;;41.25;26.55;;;0.40;99.90;;;;;;5055193;28;20048;-78
2023/12/02 01:54:31;;;;;;;40.58;25.52;;;0.40;99.90;;;;;;5072736;28;20052;-80
2023/12/02 01:56:56;;;;;;;38.70;24.37;;;0.40;99.90;;;;;;5055350;28;20052;-79
2023/12/02 01:59:22;;;;;;;37.70;24.63;;;0.40;99.90;;;;;;5071733;28;20055;-79
2023/12/02 02:01:48;;;;;;;37.93;25.47;;;0.40;99.90;;;;;;5072825;28;20044;-79
2023/12/02 02:04:14;;;;;;;40.23;25.60;;;0.40;99.90;;;;;;5072757;28;20131;-79
2023/12/02 02:06:40;;;;;;;35.63;24.03;;;0.40;99.90;;;;;;5072925;28;20044;-79
2023/12/02 02:09:05;;;;;;;38.43;25.73;;;0.40;99.90;;;;;;5071465;28;20052;-80
2023/12/02 02:11:31;;;;;;;35.47;23.43;;;0.40;99.90;;;;;;5071676;28;20090;-80
2023/12/02 02:13:56;;;;;;;37.70;24.53;;;0.40;99.90;;;;;;5072427;28;20044;-80
2023/12/02 02:16:22;;;;;;;33.80;22.50;;;0.40;99.90;;;;;;5071216;28;20503;-84
2023/12/02 02:18:48;;;;;;;37.70;23.40;;;0.40;99.90;;;;;;5073362;28;20139;-81
2023/12/02 02:21:16;;;;;;;36.93;23.73;;;0.40;99.90;;;;;;5071164;28;20037;-81
2023/12/02 02:23:42;;;;;;;39.33;25.55;;;0.40;99.90;;;;;;5071804;28;20689;-81
2023/12/02 02:26:08;;;;;;;43.73;25.90;;;0.40;99.90;;;;;;5069844;28;20048;-81
2023/12/02 02:28:34;;;;;;;34.00;23.13;;;0.30;99.90;;;;;;5069540;28;20048;-82
2023/12/02 02:30:59;;;;;;;42.63;26.23;;;0.30;99.90;;;;;;5071216;28;20053;-81
2023/12/02 02:33:26;;;;;;;34.43;23.23;;;0.30;99.90;;;;;;5072569;28;20045;-80
2023/12/02 02:35:52;;;;;;;34.13;23.08;;;0.30;99.90;;;;;;5071829;28;20059;-80
2023/12/02 02:38:18;;;;;;;40.30;25.50;;;0.20;99.90;;;;;;5072438;28;20044;-80
2023/12/02 02:40:44;;;;;;;38.63;25.08;;;0.20;99.90;;;;;;5072620;28;20051;-80
2023/12/02 02:43:11;;;;;;;36.67;26.43;;;0.20;99.90;;;;;;5071076;28;20044;-80
2023/12/02 02:45:36;;;;;;;34.65;23.92;;;0.30;99.90;;;;;;5074433;28;20080;-80
2023/12/02 02:48:02;;;;;;;33.67;23.90;;;0.30;99.90;;;;;;5076285;28;20080;-84
2023/12/02 02:50:28;;;;;;;39.90;25.47;;;0.30;99.90;;;;;;5075289;28;20049;-80
2023/12/02 02:52:54;;;;;;;40.97;26.13;;;0.30;99.90;;;;;;5076250;28;20362;-79
2023/12/02 02:55:19;;;;;;;36.97;25.33;;;0.30;99.90;;;;;;5074781;28;20044;-80
2023/12/02 02:57:45;;;;;;;38.07;25.60;;;0.30;99.90;;;;;;5058392;28;20431;-80
2023/12/02 03:00:12;;;;;;;36.07;24.53;;;0.30;99.90;;;;;;5075865;28;20079;-80
2023/12/02 03:02:40;;;;;;;43.63;26.63;;;0.30;99.90;;;;;;5076012;28;20105;-80
2023/12/02 03:05:09;;;;;;;40.13;25.98;;;0.30;99.90;;;;;;5075778;28;20048;-81
2023/12/02 03:07:35;;;;;;;39.88;25.67;;;0.30;99.90;;;;;;5075060;28;20040;-80
2023/12/02 03:10:00;;;;;;;43.77;26.70;;;0.30;99.90;;;;;;5075929;28;20045;-80
2023/12/02 03:12:27;;;;;;;39.40;25.80;;;0.30;99.90;;;;;;5074479;28;20045;-80
2023/12/02 03:14:54;;;;;;;40.05;25.70;;;0.30;99.90;;;;;;5075660;28;20045;-80
2023/12/02 03:17:20;;;;;;;43.83;26.85;;;0.30;99.90;;;;;;5075644;28;20048;-80
2023/12/02 03:19:47;;;;;;;46.80;27.67;;;0.30;99.90;;;;;;5074644;28;20044;-80
2023/12/02 03:22:13;;;;;;;34.78;24.38;;;0.30;99.90;;;;;;5075425;28;20342;-80
2023/12/02 03:24:38;;;;;;;42.13;26.37;;;0.30;99.90;;;;;;5075709;28;20083;-79
2023/12/02 03:27:04;;;;;;;42.80;27.00;;;0.30;99.90;;;;;;5074635;28;20149;-79
2023/12/02 03:29:30;;;;;;;43.40;26.50;;;0.30;99.90;;;;;;5074051;28;20400;-79
2023/12/02 03:31:55;;;;;;;38.60;24.70;;;0.30;99.90;;;;;;5074506;28;20074;-79
2023/12/02 03:34:21;;;;;;;41.50;26.37;;;0.30;99.90;;;;;;5057387;28;20040;-79
2023/12/02 03:36:47;;;;;;;42.97;26.43;;;0.30;99.90;;;;;;5075395;28;20052;-79
2023/12/02 03:39:13;;;;;;;41.47;26.27;;;0.30;99.90;;;;;;5073842;28;20052;-79
2023/12/02 03:41:40;;;;;;;38.93;25.43;;;0.30;99.90;;;;;;5075450;28;20045;-79
2023/12/02 03:44:06;;;;;;;35.17;24.00;;;0.30;99.90;;;;;;5075005;28;20127;-79
2023/12/02 03:46:34;;;;;;;38.67;26.07;;;0.30;99.90;;;;;;5074993;28;20131;-79
2023/12/02 03:49:00;;;;;;;37.85;24.75;;;0.30;99.90;;;;;;5057497;28;20053;-79
2023/12/02 03:51:26;;;;;;;39.77;24.83;;;0.30;99.90;;;;;;5074989;28;20147;-79
2023/12/02 03:53:52;;;;;;;38.83;24.60;;;0.40;99.90;;;;;;5075084;28;20046;-79
2023/12/02 03:56:18;;;;;;;34.58;22.75;;;0.40;99.90;;;;;;5073344;28;20481;-79
2023/12/02 03:58:45;;;;;;;40.78;25.70;;;0.30;99.90;;;;;;5074254;28;20146;-78
2023/12/02 04:01:11;;;;;;;43.08;25.55;;;0.30;99.90;;;;;;5073485;28;20044;-85
2023/12/02 04:03:36;;;;;;;38.53;23.27;;;0.30;99.90;;;;;;5075012;28;20477;-79
2023/12/02 04:06:03;;;;;;;43.03;25.67;;;0.30;99.90;;;;;;5073789;28;20489;-78
2023/12/02 04:08:29;;;;;;;39.40;23.90;;;0.30;99.90;;;;;;5074404;28;20048;-78
2023/12/02 04:10:55;;;;;;;41.57;25.33;;;0.20;99.90;;;;;;5073682;28;20094;-78
2023/12/02 04:13:20;;;;;;;40.10;24.93;;;0.30;99.90;;;;;;5074594;28;20044;-79
2023/12/02 04:15:46;;;;;;;31.77;22.83;;;0.30;99.90;;;;;;5075028;28;20464;-79
2023/12/02 04:18:12;;;;;;;37.47;23.67;;;0.20;99.90;;;;;;5073291;28;20102;-78
2023/12/02 04:20:38;;;;;;;35.83;23.88;;;0.30;99.90;;;;;;5074542;28;20033;-79
2023/12/02 04:23:04;;;;;;;34.60;22.87;;;0.30;99.90;;;;;;5073197;28;20530;-78
2023/12/02 04:25:30;;;;;;;37.37;24.70;;;0.30;99.90;;;;;;5074223;28;20051;-79
2023/12/02 04:27:56;;;;;;;37.28;23.20;;;0.30;99.90;;;;;;5074320;28;20051;-79
2023/12/02 04:30:21;;;;;;;34.73;22.67;;;0.30;99.90;;;;;;5073786;28;20419;-79
2023/12/02 04:32:47;;;;;;;36.63;24.10;;;0.30;99.90;;;;;;5074429;28;20037;-78
2023/12/02 04:35:13;;;;;;;39.20;24.33;;;0.40;99.90;;;;;;5076106;28;20464;-79
2023/12/02 04:37:39;;;;;;;41.13;24.57;;;0.30;99.90;;;;;;5072851;28;20048;-78
2023/12/02 04:40:10;;;;;;;34.20;23.00;;;0.30;99.90;;;;;;5074329;28;20044;-79
2023/12/02 04:42:37;;;;;;;37.75;24.58;;;0.30;99.90;;;;;;5073015;28;20052;-78
2023/12/02 04:45:04;;;;;;;37.40;24.00;;;0.20;99.90;;;;;;5072850;28;20044;-79
2023/12/02 04:47:31;;;;;;;36.22;24.70;;;0.20;99.90;;;;;;5073906;28;20128;-79
2023/12/02 04:49:57;;;;;;;40.03;25.00;;;0.30;99.90;;;;;;5074158;28;20128;-79
2023/12/02 04:52:23;;;;;;;36.38;24.10;;;0.30;99.90;;;;;;5073992;28;20115;-79
2023/12/02 04:54:49;;;;;;;36.43;24.53;;;0.20;99.90;;;;;;5073975;28;20139;-79
2023/12/02 04:57:15;;;;;;;43.03;25.15;;;0.30;99.90;;;;;;5072474;28;20052;-80
2023/12/02 04:59:41;;;;;;;43.77;27.07;;;0.30;99.90;;;;;;5073674;28;20504;-79
2023/12/02 05:02:07;;;;;;;39.13;25.07;;;0.30;99.90;;;;;;5072536;28;20116;-79
2023/12/02 05:04:33;;;;;;;39.50;26.83;;;0.30;99.90;;;;;;5073496;28;20052;-79
2023/12/02 05:06:58;;;;;;;44.40;27.43;;;0.30;99.90;;;;;;5073109;28;20059;-79
2023/12/02 05:09:24;;;;;;;42.60;25.47;;;0.30;99.90;;;;;;5072743;28;20138;-79
2023/12/02 05:11:51;;;;;;;42.10;25.93;;;0.20;99.90;;;;;;5072363;28;20041;-79
2023/12/02 05:14:17;;;;;;;35.35;23.40;;;0.30;99.90;;;;;;5072540;28;20047;-79
2023/12/02 05:16:43;;;;;;;39.60;25.03;;;0.30;99.90;;;;;;5072149;28;20044;-79
2023/12/02 05:19:09;;;;;;;41.95;27.70;;;0.30;99.90;;;;;;5073511;28;20707;-79
2023/12/02 05:21:39;;;;;;;41.00;25.67;;;0.30;99.90;;;;;;5072232;28;20127;-79
2023/12/02 05:24:04;;;;;;;40.53;25.48;;;0.30;99.90;;;;;;5073523;28;20040;-79
2023/12/02 05:26:31;;;;;;;43.20;25.13;;;0.30;99.90;;;;;;5072359;28;20078;-79
2023/12/02 05:28:59;;;;;;;44.45;26.35;;;0.20;99.90;;;;;;5072383;28;20049;-79
2023/12/02 05:31:25;;;;;;;39.13;26.15;;;0.20;99.90;;;;;;5072708;28;20508;-80
2023/12/02 05:33:51;;;;;;;43.83;26.77;;;0.20;99.90;;;;;;5073518;28;20496;-79
2023/12/02 05:36:17;;;;;;;42.63;27.42;;;0.20;99.90;;;;;;5073393;28;20054;-79
2023/12/02 05:38:43;;;;;;;40.77;26.13;;;0.20;99.90;;;;;;5055375;28;20135;-79
2023/12/02 05:41:09;;;;;;;42.90;26.50;;;0.20;99.90;;;;;;5073179;28;20105;-79
2023/12/02 05:43:34;;;;;;;43.90;26.43;;;0.20;99.90;;;;;;5073005;28;20044;-79
2023/12/02 05:46:00;;;;;;;47.10;26.93;;;0.20;99.90;;;;;;5073458;28;20492;-79
2023/12/02 05:48:26;;;;;;;42.73;26.33;;;0.20;99.90;;;;;;5072998;28;20040;-80
2023/12/02 05:50:52;;;;;;;42.40;25.90;;;0.30;99.90;;;;;;5073171;28;20045;-79
2023/12/02 05:53:17;;;;;;;43.53;26.50;;;0.20;99.90;;;;;;5073187;28;20131;-79
2023/12/02 05:55:43;;;;;;;44.73;27.27;;;0.30;99.90;;;;;;5071814;28;20071;-79
2023/12/02 05:58:09;;;;;;;43.27;27.10;;;0.20;99.90;;;;;;5072699;28;20515;-79
2023/12/02 06:00:35;;;;;;;46.03;26.37;;;0.20;99.90;;;;;;5072476;28;20053;-79
2023/12/02 06:03:02;;;;;;;42.10;25.85;;;0.20;99.90;;;;;;5073162;28;20044;-79
2023/12/02 06:05:28;;;;;;;42.38;26.50;;;0.20;99.90;;;;;;5072547;28;20040;-79
2023/12/02 06:07:54;;;;;;;39.30;25.27;;;0.20;99.90;;;;;;5072013;28;20052;-79
2023/12/02 06:10:19;;;;;;;43.67;26.77;;;0.20;99.90;;;;;;5071982;28;20044;-79
2023/12/02 06:12:45;;;;;;;43.23;26.63;;;0.20;99.90;;;;;;5072683;28;20445;-79
2023/12/02 06:15:11;;;;;;;43.78;25.27;;;0.20;99.90;;;;;;5073133;28;20040;-79
2023/12/02 06:17:38;;;;;;;41.40;25.67;;;0.30;99.90;;;;;;5072697;28;20474;-79
2023/12/02 06:20:06;;;;;;;41.42;25.70;;;0.30;99.90;;;;;;5075592;28;20052;-78
2023/12/02 06:22:32;;;;;;;43.40;25.90;;;0.30;99.90;;;;;;5075113;28;20540;-79
2023/12/02 06:24:58;;;;;;;43.97;27.40;;;0.20;99.90;;;;;;5076827;28;20041;-78
2023/12/02 06:27:24;;;;;;;45.00;26.97;;;0.30;99.90;;;;;;5059077;28;20049;-79
2023/12/02 06:29:49;;;;;;;38.73;25.53;;;0.20;99.90;;;;;;5076446;28;20044;-79
2023/12/02 06:32:15;;;;;;;41.90;26.77;;;0.30;99.90;;;;;;5076615;28;20534;-79
2023/12/02 06:34:41;;;;;;;46.23;27.40;;;0.30;99.90;;;;;;5058656;28;20377;-79
2023/12/02 06:37:06;;;;;;;52.90;29.40;;;0.30;99.90;;;;;;5075649;28;20465;-78
2023/12/02 06:39:32;;;;;;;45.07;27.93;;;0.30;99.90;;;;;;5075323;28;20135;-79
2023/12/02 06:41:58;;;;;;;45.10;27.57;;;0.30;99.90;;;;;;5076752;28;20052;-79
2023/12/02 06:44:25;;;;;;;49.83;28.83;;;0.30;99.90;;;;;;5076377;28;20091;-79
2023/12/02 06:46:51;;;;;;;40.92;27.10;;;0.30;99.90;;;;;;5076129;28;20052;-79
2023/12/02 06:49:17;;;;;;;47.83;26.80;;;0.30;99.90;;;;;;5076601;28;20574;-78
2023/12/02 06:51:44;;;;;;;42.93;26.23;;;0.30;99.90;;;;;;5076151;28;20051;-79
2023/12/02 06:54:10;;;;;;;46.22;27.00;;;0.30;99.90;;;;;;5076393;28;20055;-79
2023/12/02 06:56:36;;;;;;;55.35;29.52;;;0.30;99.90;;;;;;5076130;28;20048;-79
2023/12/02 06:59:02;;;;;;;55.10;29.87;;;0.20;99.90;;;;;;5076084;28;20048;-78
2023/12/02 07:01:31;;;;;;;45.08;27.08;;;0.30;99.90;;;;;;5075991;28;20539;-78
2023/12/02 07:03:58;;;;;;;47.83;27.52;;;0.30;99.90;;;;;;5075118;28;20110;-79
2023/12/02 07:06:25;;;;;;;40.30;26.95;;;0.30;99.90;;;;;;5076099;28;20434;-79
2023/12/02 07:08:52;;;;;;;44.33;26.85;;;0.30;99.90;;;;;;5075820;28;20055;-79
2023/12/02 07:11:18;;;;;;;54.38;27.80;;;0.40;99.90;;;;;;5075926;28;20084;-79
2023/12/02 07:13:44;;;;;;;46.00;26.38;;;0.40;99.90;;;;;;5074655;28;20050;-78
2023/12/02 07:16:11;;;;;;;43.70;27.33;;;0.30;99.90;;;;;;5075814;28;20052;-79
2023/12/02 07:18:37;;;;;;;48.50;28.23;;;0.30;99.90;;;;;;5075560;28;20048;-79
2023/12/02 07:21:03;;;;;;;49.60;26.67;;;0.30;99.90;;;;;;5075745;28;20084;-79
2023/12/02 07:23:29;;;;;;;47.83;28.10;;;0.30;99.90;;;;;;5057758;28;20086;-79
2023/12/02 07:25:58;;;;;;;45.43;26.97;;;0.40;99.90;;;;;;5075434;28;20049;-79
2023/12/02 07:28:24;;;;;;;45.75;27.55;;;0.40;99.90;;;;;;5075614;28;20049;-79
2023/12/02 07:30:50;;;;;;;45.47;27.23;;;0.30;99.90;;;;;;5073357;28;20117;-79
2023/12/02 07:33:16;;;;;;;58.50;30.50;;;0.30;99.90;;;;;;5075590;28;20406;-78
2023/12/02 07:35:42;;;;;;;49.28;28.10;;;0.40;99.90;;;;;;5075217;28;20048;-79
2023/12/02 07:38:08;;;;;;;58.70;29.80;;;0.40;99.90;;;;;;5075440;28;20101;-78
2023/12/02 07:40:35;;;;;;;50.30;28.63;;;0.40;99.90;;;;;;5075380;28;20047;-78
2023/12/02 07:43:01;;;;;;;56.92;31.48;;;0.40;99.90;;;;;;5075292;28;20044;-79
2023/12/02 07:45:27;;;;;;;42.58;26.73;;;0.50;99.90;;;;;;5075357;28;20051;-79
2023/12/02 07:47:53;;;;;;;46.43;28.13;;;0.50;99.90;;;;;;5073798;28;20056;-79
2023/12/02 07:50:19;;;;;;;48.28;28.50;;;0.50;99.90;;;;;;5075175;28;20056;-79
2023/12/02 07:52:45;;;;;;;49.95;28.98;;;0.50;99.90;;;;;;5074820;28;20076;-78
2023/12/02 07:55:12;;;;;;;50.95;29.85;;;0.50;99.90;;;;;;5075453;28;20083;-78
2023/12/02 07:57:38;;;;;;;46.42;28.33;;;0.50;99.90;;;;;;5074787;28;20060;-79
2023/12/02 08:00:04;;;;;;;58.42;30.52;;;0.60;99.90;;;;;;5075050;28;20088;-79
2023/12/02 08:02:30;;;;;;;51.40;29.80;;;0.60;99.90;;;;;;5074969;28;20404;-78
2023/12/02 08:04:57;;;;;;;46.77;27.57;;;0.60;99.90;;;;;;5074738;28;20048;-78
2023/12/02 08:07:23;;;;;;;45.33;28.30;;;0.70;99.90;;;;;;5073403;28;20512;-79
2023/12/02 08:09:49;;;;;;;47.20;28.88;;;0.60;99.90;;;;;;5056577;28;20123;-81
2023/12/02 08:12:15;;;;;;;48.33;29.50;;;0.60;99.90;;;;;;5073806;28;20496;-78
2023/12/02 08:14:41;;;;;;;46.72;29.00;;;0.60;99.90;;;;;;5074613;28;20052;-80
2023/12/02 08:17:07;;;;;;;47.23;30.93;;;0.60;99.90;;;;;;5074680;28;20117;-79
2023/12/02 08:19:33;;;;;;;47.42;28.90;;;0.70;99.90;;;;;;5074577;28;20052;-81
2023/12/02 08:21:59;;;;;;;51.33;28.88;;;0.70;99.90;;;;;;5074161;28;20048;-78
2023/12/02 08:24:25;;;;;;;51.77;28.60;;;0.70;99.90;;;;;;5073711;28;20139;-78
2023/12/02 08:26:51;;;;;;;49.30;29.57;;;0.70;99.90;;;;;;5073172;28;20542;-78
2023/12/02 08:29:16;;;;;;;50.43;29.87;;;0.70;99.90;;;;;;5074368;28;20055;-78
2023/12/02 08:31:42;;;;;;;47.57;28.50;;;0.80;99.90;;;;;;5073140;28;20045;-78
2023/12/02 08:34:08;;;;;;;52.40;29.27;;;0.80;99.90;;;;;;5074304;28;20045;-78
2023/12/02 08:36:33;;;;;;;41.63;26.60;;;0.80;99.90;;;;;;5074203;28;20507;-78
2023/12/02 08:39:02;;;;;;;48.40;27.00;;;0.80;99.90;;;;;;5072929;28;20044;-78
2023/12/02 08:41:28;;;;;;;47.13;28.27;;;0.80;99.90;;;;;;5073962;28;20045;-78
2023/12/02 08:43:53;;;;;;;47.97;27.40;;;0.90;99.90;;;;;;5073696;28;20106;-78
2023/12/02 08:46:19;;;;;;;52.83;29.70;;;0.90;99.90;;;;;;5074020;28;20126;-78
2023/12/02 08:48:46;;;;;;;48.35;28.10;;;0.90;99.90;;;;;;5073721;28;20084;-78
2023/12/02 08:51:11;;;;;;;46.95;27.42;;;0.90;99.90;;;;;;5073931;28;20044;-78
2023/12/02 08:53:37;;;;;;;51.40;29.10;;;1.00;99.90;;;;;;5056297;28;20118;-77
2023/12/02 08:56:04;;;;;;;48.73;26.73;;;0.90;99.90;;;;;;5072365;28;20309;-79
2023/12/02 08:58:30;;;;;;;44.30;26.05;;;0.90;99.90;;;;;;5073195;28;20057;-78
2023/12/02 09:00:56;;;;;;;47.72;27.58;;;0.90;99.90;;;;;;5073472;28;20044;-77
2023/12/02 09:03:22;;;;;;;43.77;26.37;;;1.00;99.90;;;;;;5073605;28;20094;-77
2023/12/02 09:05:48;;;;;;;50.95;28.52;;;1.00;99.90;;;;;;5073296;28;20476;-76
2023/12/02 09:08:14;;;;;;;48.90;27.35;;;1.00;99.90;;;;;;5072624;28;20045;-76
2023/12/02 09:10:40;;;;;;;46.30;28.57;;;1.00;99.90;;;;;;5073556;28;20531;-76
2023/12/02 09:13:24;;;;;;;46.57;27.73;;;1.00;99.90;;;;;;5072046;28;20047;-76
2023/12/02 09:15:49;;;;;;;47.80;27.88;;;1.10;99.90;;;;;;5073281;28;20470;-76
2023/12/02 09:18:35;;;;;;;49.47;29.07;;;1.10;99.90;;;;;;5073525;28;20095;-76
2023/12/02 09:21:01;;;;;;;50.00;28.63;;;1.10;99.90;;;;;;5072188;28;20099;-76
2023/12/02 09:23:29;;;;;;;55.92;31.70;;;1.10;99.90;;;;;;5073299;28;20045;-76
2023/12/02 09:26:03;;;;;;;50.67;29.67;;;1.20;99.90;;;;;;5073226;28;20052;-77
2023/12/02 09:28:29;;;;;;;53.60;30.45;;;1.20;99.90;;;;;;5073566;28;20056;-77
2023/12/02 09:31:08;;;;;;;47.53;29.10;;;1.20;99.90;;;;;;5072545;28;20501;-81
2023/12/02 09:33:34;;;;;;;47.85;28.02;;;1.30;99.90;;;;;;5072144;28;20036;-79
2023/12/02 09:36:02;;;;;;;47.22;28.60;;;1.30;99.90;;;;;;5072954;28;20051;-79
2023/12/02 09:38:28;;;;;;;48.03;28.00;;;1.30;99.90;;;;;;5073163;28;20481;-79
2023/12/02 09:41:09;;;;;;;49.38;28.50;;;1.30;99.90;;;;;;5069556;28;20052;-81
2023/12/02 09:43:55;;;;;;;44.17;27.40;;;1.40;99.90;;;;;;5063423;28;20049;-80
2023/12/02 09:46:26;;;;;;;45.53;28.30;;;1.40;99.90;;;;;;5069893;28;20123;-78
2023/12/02 09:49:10;;;;;;;47.22;26.27;;;1.40;99.90;;;;;;5070394;28;20068;-82
2023/12/02 09:52:20;;;;;;;47.40;28.25;;;1.50;99.90;;;;;;5072171;28;20106;-79
2023/12/02 09:55:07;;;;;;;46.40;28.80;;;1.50;99.90;;;;;;5015902;28;20048;-81
2023/12/02 09:57:45;;;;;;;59.45;37.53;;;1.50;99.90;;;;;;5072477;28;20079;-80
2023/12/02 10:00:21;;;;;;;45.63;29.83;;;1.60;99.90;;;;;;5072052;28;20052;-79
2023/12/02 10:02:56;;;;;;;46.65;28.75;;;1.60;99.90;;;;;;5071441;28;20044;-81
2023/12/02 10:05:22;;;;;;;40.03;25.60;;;1.60;99.90;;;;;;5072199;28;20052;-82
2023/12/02 10:08:25;;;;;;;38.00;25.48;;;1.60;99.90;;;;;;5072800;28;20082;-89
2023/12/02 10:11:26;;;;;;;47.30;25.42;;;1.70;99.90;;;;;;5065866;28;20511;-87
2023/12/02 10:13:51;;;;;;;46.67;24.80;;;1.70;99.90;;;;;;5013678;28;20416;-80
2023/12/02 10:16:23;;;;;;;39.30;22.47;;;1.80;99.90;;;;;;5058873;28;20056;-87
2023/12/02 10:18:58;;;;;;;33.17;20.67;;;1.80;99.90;;;;;;5072237;28;20040;-90
2023/12/02 10:21:32;;;;;;;37.10;21.88;;;1.90;99.90;;;;;;5055789;28;20049;-87
2023/12/02 10:24:06;;;;;;;34.80;19.85;;;2.00;99.90;;;;;;5071711;28;20048;-85
2023/12/02 10:27:03;;;;;;;29.85;20.45;;;2.00;99.90;;;;;;5072805;28;20048;-81
2023/12/02 10:29:41;;;;;;;35.80;20.85;;;2.10;99.90;;;;;;5066979;28;20061;-84
2023/12/02 10:32:54;;;;;;;29.13;18.42;;;2.10;99.90;;;;;;5071634;28;20097;-88
2023/12/02 10:35:29;;;;;;;27.42;17.00;;;2.10;99.90;;;;;;5025918;28;20067;-82
2023/12/02 10:38:34;;;;;;;28.70;19.83;;;2.20;99.90;;;;;;5072612;28;20044;-82
2023/12/02 10:41:34;;;;;;;30.98;19.67;;;2.20;99.90;;;;;;5072374;28;20082;-83
2023/12/02 10:44:06;;;;;;;24.63;16.40;;;2.30;99.90;;;;;;5068133;28;20067;-83
2023/12/02 10:46:33;;;;;;;23.38;14.93;;;2.30;99.90;;;;;;5072592;28;20094;-82
2023/12/02 10:49:00;;;;;;;22.00;14.32;;;2.40;99.90;;;;;;5072199;28;20071;-81
2023/12/02 10:51:27;;;;;;;25.50;14.50;;;2.40;99.90;;;;;;5072500;28;20048;-80
2023/12/02 10:53:57;;;;;;;18.25;12.90;;;2.50;99.90;;;;;;5072550;28;20048;-80
2023/12/02 10:56:26;;;;;;;17.50;12.63;;;2.50;99.90;;;;;;5071630;28;20056;-81
2023/12/02 10:58:52;;;;;;;17.83;11.25;;;2.60;99.90;;;;;;5072458;28;20110;-86
2023/12/02 11:01:26;;;;;;;17.40;10.70;;;2.60;99.90;;;;;;5071058;28;20086;-84
2023/12/02 11:04:02;;;;;;;16.30;10.15;;;2.70;99.90;;;;;;5072482;28;20048;-85
2023/12/02 11:06:37;;;;;;;16.85;9.88;;;2.70;99.90;;;;;;5056348;28;20476;-83
2023/12/02 11:09:24;;;;;;;17.98;10.10;;;2.80;99.90;;;;;;5074935;28;20048;-82
2023/12/02 11:11:58;;;;;;;20.02;10.40;;;2.80;99.90;;;;;;5075915;28;20116;-79
2023/12/02 11:14:25;;;;;;;15.25;8.20;;;2.80;99.90;;;;;;5076239;28;20044;-77
2023/12/02 11:17:09;;;;;;;12.38;7.63;;;2.90;99.90;;;;;;5075751;28;20059;-78
2023/12/02 11:19:59;;;;;;;16.75;9.38;;;2.90;99.90;;;;;;5076105;28;20045;-78
2023/12/02 11:22:54;;;;;;;13.00;7.78;;;3.00;99.90;;;;;;5075649;28;20051;-79
2023/12/02 11:25:41;;;;;;;14.40;8.00;;;3.00;99.90;;;;;;5075293;28;20055;-76
2023/12/02 11:28:27;;;;;;;10.00;6.60;;;3.00;99.90;;;;;;5075305;28;20467;-79
2023/12/02 11:31:20;;;;;;;13.20;7.18;;;3.10;99.90;;;;;;5075558;28;20481;-79
2023/12/02 11:34:17;;;;;;;9.85;6.05;;;3.10;99.90;;;;;;5075520;28;20503;-78
2023/12/02 11:36:53;;;;;;;14.10;7.65;;;3.10;99.90;;;;;;5075561;28;20040;-78
2023/12/02 11:39:22;;;;;;;11.13;6.82;;;3.10;99.90;;;;;;5073965;28;20060;-77
2023/12/02 11:42:11;;;;;;;12.18;7.05;;;3.20;99.90;;;;;;5075234;28;20051;-77
2023/12/02 11:45:05;;;;;;;11.07;7.18;;;3.20;99.90;;;;;;5075301;28;20049;-77
2023/12/02 11:47:33;;;;;;;10.20;6.32;;;3.20;99.90;;;;;;5075349;28;20052;-77
2023/12/02 11:50:09;;;;;;;10.60;7.05;;;3.20;99.90;;;;;;5074188;28;20060;-78
2023/12/02 11:53:03;;;;;;;9.57;6.57;;;3.30;99.90;;;;;;5074615;28;20060;-76
2023/12/02 11:55:56;;;;;;;9.40;5.70;;;3.30;99.90;;;;;;5075161;28;20052;-75
2023/12/02 11:58:44;;;;;;;13.57;5.40;;;3.30;99.90;;;;;;5065955;28;20083;-82
2023/12/02 12:01:16;;;;;;;14.15;7.38;;;3.30;99.90;;;;;;5064430;28;20052;-78
2023/12/02 12:03:53;;;;;;;10.93;6.30;;;3.30;99.90;;;;;;5073973;28;20373;-78
2023/12/02 12:06:39;;;;;;;11.93;5.78;;;3.30;99.90;;;;;;5074730;28;20055;-78
2023/12/02 12:09:17;;;;;;;9.80;4.95;;;3.30;99.90;;;;;;5074654;28;20052;-79
2023/12/02 12:11:44;;;;;;;9.93;5.30;;;3.30;99.90;;;;;;5073702;28;20059;-76
2023/12/02 12:14:11;;;;;;;9.27;5.40;;;3.40;99.90;;;;;;5074472;28;20044;-76
2023/12/02 12:16:37;;;;;;;8.82;5.22;;;3.30;99.90;;;;;;5074042;28;20500;-76
2023/12/02 12:19:03;;;;;;;8.33;5.40;;;3.40;99.90;;;;;;5074750;28;20049;-77
2023/12/02 12:21:28;;;;;;;8.77;5.00;;;3.30;99.90;;;;;;5074575;28;20128;-76
2023/12/02 12:23:54;;;;;;;9.23;5.70;;;3.30;99.90;;;;;;5074302;28;20480;-77
2023/12/02 12:26:20;;;;;;;7.80;4.67;;;3.40;99.90;;;;;;5074381;28;20063;-79
2023/12/02 12:28:47;;;;;;;12.10;5.00;;;3.40;99.90;;;;;;5073537;28;20477;-78
2023/12/02 12:31:13;;;;;;;7.65;4.85;;;3.40;99.90;;;;;;5074285;28;20070;-77
2023/12/02 12:33:39;;;;;;;9.03;4.60;;;3.40;99.90;;;;;;5074400;28;20048;-78
2023/12/02 12:36:06;;;;;;;7.60;4.68;;;3.40;99.90;;;;;;5056749;28;20320;-78
2023/12/02 12:38:32;;;;;;;11.15;4.57;;;3.40;99.90;;;;;;5074211;28;20492;-77
2023/12/02 12:40:58;;;;;;;11.10;4.70;;;3.40;99.90;;;;;;5056650;28;20048;-75
2023/12/02 12:43:23;;;;;;;9.73;4.60;;;3.40;99.90;;;;;;5073905;28;20045;-76
2023/12/02 12:45:53;;;;;;;9.03;5.10;;;3.40;99.90;;;;;;5074173;28;20078;-78